Time;durP1;ratioP1;P1;durP2;ratioP2;P2;SDS_P1;SDS_P2;PMS_P1;PMS_P2;Temp;Humidity;BMP_temperature;BMP_pressure;BME280_temperature;BME280_humidity;BME280_pressure;Samples;Min_cycle;Max_cycle;Signal;HPM_P1;HPM_P2
2024/03/19 07:15:36;;;;;;;6.85;5.10;;;;;;;;;;12634899;23;20002;-85
2024/03/19 07:20:51;;;;;;;7.85;5.50;;;;;;;;;;12633333;23;20319;-85
2024/03/19 07:32:10;;;;;;;8.77;6.43;;;;;;;;;;12338216;24;20437;-83
2024/03/19 07:37:59;;;;;;;7.22;5.80;;;;;;;;;;12637261;23;20039;-85
2024/03/19 07:48:57;;;;;;;6.88;5.28;;;;;;;;;;12758179;23;20014;-85
2024/03/19 07:53:59;;;;;;;8.32;5.68;;;;;;;;;;12702030;23;20518;-83
2024/03/19 07:59:00;;;;;;;9.18;5.95;;;;;;;;;;12803390;23;20009;-84
2024/03/19 08:04:01;;;;;;;9.00;5.50;;;;;;;;;;12789024;23;20001;-85
2024/03/19 08:09:03;;;;;;;9.13;4.30;;;;;;;;;;12726336;23;20479;-84
2024/03/19 08:14:04;;;;;;;10.27;6.07;;;;;;;;;;12723787;23;20016;-84
2024/03/19 08:19:06;;;;;;;9.05;6.03;;;;;;;;;;12753511;23;20080;-83
2024/03/19 08:24:09;;;;;;;10.95;6.78;;;;;;;;;;12755334;23;20002;-85
2024/03/19 08:29:11;;;;;;;10.85;6.78;;;;;;;;;;12728680;23;20010;-87
2024/03/19 08:34:13;;;;;;;11.60;8.13;;;;;;;;;;12729269;23;20021;-86
2024/03/19 08:39:14;;;;;;;12.15;8.07;;;;;;;;;;12750089;23;20037;-85
2024/03/19 08:44:15;;;;;;;22.08;12.75;;;;;;;;;;12735707;23;20010;-86
2024/03/19 08:49:16;;;;;;;12.07;8.98;;;;;;;;;;12723369;23;20096;-85
2024/03/19 08:54:17;;;;;;;14.20;10.25;;;;;;;;;;12748805;23;20010;-87
2024/03/19 08:59:18;;;;;;;20.65;14.55;;;;;;;;;;12724193;23;20079;-85
2024/03/19 09:04:19;;;;;;;15.43;9.68;;;;;;;;;;12751585;23;20072;-85
2024/03/19 09:09:20;;;;;;;16.98;11.75;;;;;;;;;;12725439;23;20435;-85
2024/03/19 09:14:21;;;;;;;13.55;8.85;;;;;;;;;;12749865;23;20016;-86
2024/03/19 09:19:23;;;;;;;16.02;10.93;;;;;;;;;;12749945;23;20008;-85
2024/03/19 09:24:24;;;;;;;17.52;10.82;;;;;;;;;;12723569;23;20006;-85
2024/03/19 09:29:25;;;;;;;18.20;11.40;;;;;;;;;;12724449;23;20005;-84
2024/03/19 09:34:26;;;;;;;9.38;6.53;;;;;;;;;;12730320;23;20010;-86
2024/03/19 09:39:27;;;;;;;13.05;8.93;;;;;;;;;;12758266;23;20005;-86
2024/03/19 09:44:28;;;;;;;8.95;5.88;;;;;;;;;;12766376;23;19997;-85
2024/03/19 09:49:32;;;;;;;13.00;8.40;;;;;;;;;;12752964;23;20017;-84
2024/03/19 09:54:34;;;;;;;8.10;5.28;;;;;;;;;;12785420;23;20397;-85
2024/03/19 09:59:35;;;;;;;7.25;4.70;;;;;;;;;;12724907;23;20017;-84
2024/03/19 10:04:37;;;;;;;6.90;4.82;;;;;;;;;;12728172;23;20001;-84
2024/03/19 10:09:38;;;;;;;6.20;3.22;;;;;;;;;;12727948;23;20005;-85
2024/03/19 10:14:39;;;;;;;5.88;4.18;;;;;;;;;;12729274;23;20017;-85
2024/03/19 10:19:40;;;;;;;5.90;3.30;;;;;;;;;;12726705;23;20013;-85
2024/03/19 10:24:46;;;;;;;8.93;5.43;;;;;;;;;;12735577;23;20009;-83
2024/03/19 10:29:47;;;;;;;7.75;4.32;;;;;;;;;;12756429;23;20005;-84
2024/03/19 10:34:50;;;;;;;5.35;3.25;;;;;;;;;;12752431;23;20001;-84
2024/03/19 10:39:51;;;;;;;6.43;3.78;;;;;;;;;;12728597;23;20025;-86
2024/03/19 10:44:52;;;;;;;4.90;2.85;;;;;;;;;;12727952;23;20388;-86
2024/03/19 10:49:54;;;;;;;6.32;2.30;;;;;;;;;;12754448;23;20009;-86
2024/03/19 10:54:56;;;;;;;4.38;2.33;;;;;;;;;;12752552;23;20030;-85
2024/03/19 10:59:57;;;;;;;5.13;2.50;;;;;;;;;;12716535;23;20072;-85
2024/03/19 11:04:58;;;;;;;5.72;2.72;;;;;;;;;;12736260;23;20013;-84
2024/03/19 11:09:59;;;;;;;4.03;2.22;;;;;;;;;;12767299;23;20013;-82
2024/03/19 11:15:00;;;;;;;5.68;2.70;;;;;;;;;;12749748;23;20013;-84
2024/03/19 11:20:04;;;;;;;4.50;2.58;;;;;;;;;;12745643;23;20488;-84
2024/03/19 11:25:07;;;;;;;4.97;2.33;;;;;;;;;;12719549;23;20010;-84
2024/03/19 11:30:09;;;;;;;4.82;2.63;;;;;;;;;;12721575;23;20012;-84
2024/03/19 11:35:21;;;;;;;6.13;3.30;;;;;;;;;;12748756;23;20002;-85
2024/03/19 11:40:24;;;;;;;4.75;2.20;;;;;;;;;;12728513;23;20001;-86
2024/03/19 11:45:25;;;;;;;4.45;2.47;;;;;;;;;;12725304;23;20012;-86
2024/03/19 11:50:27;;;;;;;5.85;2.38;;;;;;;;;;12749035;23;20028;-86
2024/03/19 11:55:28;;;;;;;4.15;1.98;;;;;;;;;;12750523;23;20033;-85
2024/03/19 12:00:29;;;;;;;5.50;2.55;;;;;;;;;;12754262;23;20008;-87
2024/03/19 12:05:30;;;;;;;5.13;2.00;;;;;;;;;;12730104;23;20001;-86
2024/03/19 12:10:33;;;;;;;4.57;1.50;;;;;;;;;;12757558;23;20001;-86
2024/03/19 12:15:34;;;;;;;4.57;2.08;;;;;;;;;;12732575;23;20005;-87
2024/03/19 12:20:37;;;;;;;4.65;1.90;;;;;;;;;;12765457;23;20025;-83
2024/03/19 12:25:40;;;;;;;3.13;1.40;;;;;;;;;;12765240;23;19986;-86
2024/03/19 12:30:41;;;;;;;3.20;1.50;;;;;;;;;;12725777;23;20005;-85
2024/03/19 12:35:42;;;;;;;4.22;1.60;;;;;;;;;;12750999;23;20052;-86
2024/03/19 12:40:43;;;;;;;3.33;1.40;;;;;;;;;;12750505;23;20052;-85
2024/03/19 12:45:44;;;;;;;2.70;1.25;;;;;;;;;;12725379;23;20049;-85
2024/03/19 12:50:45;;;;;;;3.65;1.70;;;;;;;;;;12752352;23;20101;-85
2024/03/19 12:55:47;;;;;;;4.57;1.80;;;;;;;;;;12725952;23;20013;-86
2024/03/19 13:00:48;;;;;;;4.30;1.80;;;;;;;;;;12754166;23;20029;-86
2024/03/19 13:05:51;;;;;;;4.28;1.35;;;;;;;;;;12728918;23;20002;-86
2024/03/19 13:10:53;;;;;;;2.90;1.40;;;;;;;;;;12754449;23;20001;-86
2024/03/19 13:15:54;;;;;;;3.50;1.65;;;;;;;;;;12726993;23;20032;-86
2024/03/19 13:20:55;;;;;;;6.28;3.05;;;;;;;;;;12731551;23;20016;-85
2024/03/19 13:26:12;;;;;;;4.30;1.50;;;;;;;;;;12759328;23;20352;-86
2024/03/19 13:31:43;;;;;;;5.15;1.50;;;;;;;;;;12741645;23;20016;-86
2024/03/19 13:36:51;;;;;;;;;;;;;;;;;;12787201;23;20006;-85
2024/03/19 13:41:52;;;;;;;3.05;1.45;;;;;;;;;;12775546;23;19923;-86
2024/03/19 13:46:53;;;;;;;5.68;1.83;;;;;;;;;;12723083;23;20009;-86
2024/03/19 13:51:56;;;;;;;2.38;1.48;;;;;;;;;;12719901;23;20063;-85
2024/03/19 13:56:57;;;;;;;4.18;2.10;;;;;;;;;;12747579;23;20018;-83
2024/03/19 14:01:58;;;;;;;6.28;3.67;;;;;;;;;;12750157;23;20029;-84
2024/03/19 14:07:00;;;;;;;5.72;3.42;;;;;;;;;;12726904;23;20002;-84
2024/03/19 14:12:01;;;;;;;14.57;9.90;;;;;;;;;;12747866;23;20025;-82
2024/03/19 14:17:02;;;;;;;10.45;6.03;;;;;;;;;;12747409;23;20424;-82
2024/03/19 14:22:05;;;;;;;7.85;4.38;;;;;;;;;;12747102;23;20008;-81
2024/03/19 14:27:06;;;;;;;6.07;3.80;;;;;;;;;;12716347;23;20001;-82
2024/03/19 14:32:10;;;;;;;7.35;3.40;;;;;;;;;;12718133;23;20065;-82
2024/03/19 14:37:11;;;;;;;5.38;2.85;;;;;;;;;;12754196;23;20005;-84
2024/03/19 14:42:13;;;;;;;6.28;2.65;;;;;;;;;;12738227;23;20010;-81
2024/03/19 14:47:14;;;;;;;6.07;2.35;;;;;;;;;;12767121;23;20010;-82
2024/03/19 14:52:15;;;;;;;4.15;2.15;;;;;;;;;;12751653;23;20008;-83
2024/03/19 14:57:17;;;;;;;5.15;2.10;;;;;;;;;;12745219;23;20376;-82
2024/03/19 15:02:22;;;;;;;4.57;2.08;;;;;;;;;;12747789;23;20012;-82
2024/03/19 15:07:23;;;;;;;4.80;1.92;;;;;;;;;;12723940;23;20016;-82
2024/03/19 15:12:24;;;;;;;3.70;1.65;;;;;;;;;;12753656;23;20324;-81
2024/03/19 15:17:26;;;;;;;4.65;1.70;;;;;;;;;;12795661;23;20036;-80
2024/03/19 15:22:27;;;;;;;5.07;1.67;;;;;;;;;;12768941;23;20006;-83
2024/03/19 15:27:29;;;;;;;6.45;2.05;;;;;;;;;;12779967;23;20012;-82
2024/03/19 15:32:30;;;;;;;4.82;1.50;;;;;;;;;;12758042;23;20387;-84
2024/03/19 15:37:31;;;;;;;3.50;1.50;;;;;;;;;;12757750;23;20005;-84
2024/03/19 15:42:32;;;;;;;4.97;1.58;;;;;;;;;;12732873;23;20048;-83
2024/03/19 15:47:37;;;;;;;5.70;1.70;;;;;;;;;;12730930;23;20050;-86
2024/03/19 15:52:38;;;;;;;5.00;1.80;;;;;;;;;;12729694;23;20355;-85
2024/03/19 15:57:40;;;;;;;4.05;1.60;;;;;;;;;;12771750;23;19997;-83
2024/03/19 16:02:42;;;;;;;3.30;1.40;;;;;;;;;;12790146;23;20029;-85
2024/03/19 16:07:44;;;;;;;3.58;1.50;;;;;;;;;;12754410;23;20005;-84
2024/03/19 16:12:45;;;;;;;4.05;1.50;;;;;;;;;;12753834;23;20041;-85
2024/03/19 16:17:48;;;;;;;5.07;1.38;;;;;;;;;;12752699;23;20344;-86
2024/03/19 16:22:55;;;;;;;4.65;1.55;;;;;;;;;;12726408;23;20080;-84
2024/03/19 16:28:12;;;;;;;3.38;1.70;;;;;;;;;;12727750;23;20009;-85
2024/03/19 16:33:14;;;;;;;3.47;1.90;;;;;;;;;;12753872;23;20008;-85
2024/03/19 16:38:18;;;;;;;3.10;1.50;;;;;;;;;;12748694;23;20016;-84
2024/03/19 16:43:29;;;;;;;4.72;1.50;;;;;;;;;;12746793;23;20012;-84
2024/03/19 16:48:30;;;;;;;5.32;1.60;;;;;;;;;;12747023;23;20335;-85
2024/03/19 16:53:31;;;;;;;3.72;1.60;;;;;;;;;;12729830;23;20049;-85
2024/03/19 16:58:38;;;;;;;4.45;1.88;;;;;;;;;;12770490;23;20013;-84
2024/03/19 17:03:44;;;;;;;3.72;1.50;;;;;;;;;;12744168;23;20006;-85
2024/03/19 17:08:45;;;;;;;3.88;1.70;;;;;;;;;;12733271;23;20013;-84
2024/03/19 17:13:46;;;;;;;3.20;1.90;;;;;;;;;;12783797;23;19990;-83
2024/03/19 17:18:51;;;;;;;5.50;2.20;;;;;;;;;;12745420;23;20017;-82
2024/03/19 17:23:53;;;;;;;3.78;1.90;;;;;;;;;;12748588;23;20025;-82
2024/03/19 17:28:54;;;;;;;5.70;2.00;;;;;;;;;;12751724;23;20033;-82
2024/03/19 17:33:57;;;;;;;4.55;1.80;;;;;;;;;;12751250;23;20025;-82
2024/03/19 17:38:59;;;;;;;4.43;2.30;;;;;;;;;;12752188;23;20025;-81
2024/03/19 17:44:00;;;;;;;4.75;3.10;;;;;;;;;;12724539;23;20387;-83
2024/03/19 17:49:04;;;;;;;4.97;2.38;;;;;;;;;;12718971;23;20009;-82
2024/03/19 17:54:07;;;;;;;4.97;2.63;;;;;;;;;;12747298;23;20342;-81
2024/03/19 17:59:13;;;;;;;4.15;2.28;;;;;;;;;;12724371;23;20020;-82
2024/03/19 18:04:15;;;;;;;5.07;2.25;;;;;;;;;;12752379;23;19998;-82
2024/03/19 18:09:16;;;;;;;2.63;1.70;;;;;;;;;;12755742;23;20006;-81
2024/03/19 18:14:17;;;;;;;3.25;2.10;;;;;;;;;;12728318;23;20388;-82
2024/03/19 18:19:18;;;;;;;3.30;1.98;;;;;;;;;;12759234;23;20017;-83
2024/03/19 18:24:19;;;;;;;4.45;2.28;;;;;;;;;;12783331;23;20013;-82
2024/03/19 18:29:20;;;;;;;3.67;2.22;;;;;;;;;;12773629;23;20068;-80
2024/03/19 18:34:26;;;;;;;4.20;2.20;;;;;;;;;;12729119;23;20088;-81
2024/03/19 18:39:27;;;;;;;5.03;3.33;;;;;;;;;;12730598;23;20013;-81
2024/03/19 18:44:28;;;;;;;6.00;3.22;;;;;;;;;;12758024;23;19998;-81
2024/03/19 18:49:30;;;;;;;5.75;3.08;;;;;;;;;;12758736;23;20005;-82
2024/03/19 18:54:31;;;;;;;3.75;2.70;;;;;;;;;;12755476;23;20001;-81
2024/03/19 18:59:32;;;;;;;3.80;2.60;;;;;;;;;;12730499;23;20078;-81
2024/03/19 19:04:33;;;;;;;5.55;3.00;;;;;;;;;;12785430;23;19997;-82
2024/03/19 19:09:37;;;;;;;3.35;1.90;;;;;;;;;;12790085;23;20446;-82
2024/03/19 19:14:38;;;;;;;3.10;2.30;;;;;;;;;;12739364;23;20008;-82
2024/03/19 19:19:40;;;;;;;4.20;2.92;;;;;;;;;;12731689;23;20031;-82
2024/03/19 19:24:41;;;;;;;4.03;2.72;;;;;;;;;;12734605;23;20002;-82
2024/03/19 19:29:42;;;;;;;5.72;3.10;;;;;;;;;;12784491;23;20028;-81
2024/03/19 19:34:43;;;;;;;4.88;3.00;;;;;;;;;;12730911;23;20037;-82
2024/03/19 19:39:44;;;;;;;5.20;3.03;;;;;;;;;;12754443;23;20008;-82
2024/03/19 19:44:45;;;;;;;4.85;3.40;;;;;;;;;;12732543;23;20002;-82
2024/03/19 19:49:46;;;;;;;7.30;3.22;;;;;;;;;;12762242;23;20001;-82
2024/03/19 19:54:54;;;;;;;4.88;2.83;;;;;;;;;;12762555;23;20047;-82
2024/03/19 20:00:10;;;;;;;5.30;3.38;;;;;;;;;;12816630;23;20059;-83
2024/03/19 20:05:11;;;;;;;4.38;2.85;;;;;;;;;;12777846;23;20013;-82
